Time;durP1;ratioP1;P1;durP2;ratioP2;P2;SDS_P1;SDS_P2;PMS_P1;PMS_P2;Temp;Humidity;BMP_temperature;BMP_pressure;BME280_temperature;BME280_humidity;BME280_pressure;Samples;Min_cycle;Max_cycle;Signal;HPM_P1;HPM_P2
2023/03/19 00:04:17;;;;;;;0.60;0.20;;;;;;;16.10;52.73;96403.72;10394251;28;20488;-32
2023/03/19 00:09:19;;;;;;;0.20;0.20;;;;;;;16.16;50.83;96424.78;10383250;28;20556;-33
2023/03/19 00:14:19;;;;;;;0.22;0.20;;;;;;;16.07;48.77;96432.31;10383220;28;20136;-34
2023/03/19 00:19:20;;;;;;;0.50;0.30;;;;;;;16.03;48.64;96434.81;10382060;28;20046;-33
2023/03/19 00:24:20;;;;;;;0.47;0.30;;;;;;;16.00;48.37;96443.22;10388679;28;20405;-35
2023/03/19 00:29:22;;;;;;;0.30;0.20;;;;;;;15.98;48.42;96444.91;10387482;28;20033;-34
2023/03/19 00:34:22;;;;;;;0.20;0.20;;;;;;;15.96;48.29;96436.44;10385573;28;20537;-32
2023/03/19 00:39:23;;;;;;;0.25;0.25;;;;;;;15.95;48.54;96444.84;10391467;28;20069;-32
2023/03/19 00:44:23;;;;;;;0.30;0.20;;;;;;;15.94;48.37;96450.75;10387371;28;20034;-33
2023/03/19 00:49:23;;;;;;;0.40;0.30;;;;;;;15.94;48.44;96447.41;10386486;28;20284;-33
2023/03/19 00:54:24;;;;;;;0.43;0.28;;;;;;;15.90;48.08;96451.59;10390673;28;20672;-36
2023/03/19 00:59:25;;;;;;;0.15;0.15;;;;;;;15.92;48.07;96462.53;10384175;28;20040;-33
2023/03/19 01:04:25;;;;;;;0.45;0.38;;;;;;;15.91;47.99;96459.97;10391451;28;20044;-33
2023/03/19 01:09:25;;;;;;;0.30;0.30;;;;;;;15.91;48.03;96462.50;10384548;28;20060;-33
2023/03/19 01:14:26;;;;;;;0.20;0.20;;;;;;;15.92;48.02;96470.09;10386938;28;20029;-33
2023/03/19 01:19:29;;;;;;;0.73;0.22;;;;;;;16.04;49.75;96459.22;10389701;28;20285;-33
2023/03/19 01:24:30;;;;;;;0.30;0.30;;;;;;;16.16;52.62;96465.19;10382331;28;20034;-36
2023/03/19 01:29:31;;;;;;;0.30;0.20;;;;;;;16.18;51.46;96466.03;10388276;28;20486;-33
2023/03/19 01:34:35;;;;;;;0.30;0.30;;;;;;;16.10;50.11;96465.16;10387426;28;20030;-33
2023/03/19 01:39:41;;;;;;;0.30;0.30;;;;;;;16.03;48.70;96468.47;10387324;28;20543;-32
2023/03/19 01:44:45;;;;;;;0.47;0.32;;;;;;;15.98;48.59;96459.19;10394007;28;20034;-33
2023/03/19 01:50:43;;;;;;;0.60;0.30;;;;;;;15.96;48.39;96458.34;10386325;28;20120;-32
2023/03/19 01:56:10;;;;;;;0.22;0.20;;;;;;;15.93;48.58;96451.59;10390743;28;20061;-33
2023/03/19 02:01:14;;;;;;;0.50;0.50;;;;;;;15.91;48.28;96453.25;10400701;28;20025;-32
2023/03/19 02:06:20;;;;;;;0.57;0.20;;;;;;;15.92;48.24;96454.09;10402689;28;20472;-33
2023/03/19 02:11:21;;;;;;;0.20;0.20;;;;;;;15.92;48.10;96459.16;10389971;28;20041;-33
2023/03/19 02:16:22;;;;;;;0.20;0.20;;;;;;;15.92;48.29;96464.19;10378123;28;20409;-32
2023/03/19 02:21:22;;;;;;;0.38;0.17;;;;;;;15.91;48.06;96468.41;10400469;28;20030;-33
2023/03/19 02:26:27;;;;;;;0.45;0.25;;;;;;;15.90;48.11;96456.63;10395823;28;20037;-33
2023/03/19 02:31:33;;;;;;;0.30;0.20;;;;;;;15.90;47.91;96464.19;10401410;28;20561;-33
2023/03/19 02:36:41;;;;;;;0.80;0.20;;;;;;;15.90;47.95;96456.63;10383237;28;20026;-34
2023/03/19 02:41:43;;;;;;;0.22;0.20;;;;;;;15.94;49.29;96458.31;10391004;28;20057;-33
2023/03/19 02:46:44;;;;;;;0.30;0.30;;;;;;;16.10;52.44;96452.53;10384632;28;20061;-33
2023/03/19 02:51:44;;;;;;;0.30;0.30;;;;;;;16.14;53.10;96454.25;10381477;28;20105;-33
2023/03/19 02:56:45;;;;;;;0.20;0.20;;;;;;;16.01;50.77;96429.75;10386867;28;20038;-33
2023/03/19 03:01:46;;;;;;;0.47;0.30;;;;;;;16.03;49.28;96448.28;10384301;28;20551;-32
2023/03/19 03:06:46;;;;;;;0.40;0.20;;;;;;;15.94;48.49;96444.88;10383098;28;20140;-34
2023/03/19 03:11:48;;;;;;;0.20;0.20;;;;;;;15.96;48.81;96451.59;10396984;28;20041;-32
2023/03/19 03:16:49;;;;;;;0.20;0.20;;;;;;;15.94;48.24;96460.03;10393374;28;20033;-33
2023/03/19 03:21:50;;;;;;;0.30;0.30;;;;;;;15.92;48.34;96457.47;10394635;28;20116;-32
2023/03/19 03:26:51;;;;;;;0.40;0.30;;;;;;;15.91;48.19;96457.47;10393145;28;20087;-33
2023/03/19 03:31:53;;;;;;;0.40;0.30;;;;;;;15.90;48.26;96450.72;10391558;28;20034;-33
2023/03/19 03:36:53;;;;;;;0.40;0.40;;;;;;;15.89;47.98;96459.13;10395625;28;20041;-33
2023/03/19 03:41:54;;;;;;;0.20;0.20;;;;;;;15.88;47.95;96460.81;10394489;28;20029;-38
2023/03/19 03:46:54;;;;;;;0.60;0.35;;;;;;;15.87;48.29;96459.13;10409093;28;20033;-33
2023/03/19 03:51:55;;;;;;;0.10;0.10;;;;;;;15.87;47.92;96461.63;10392925;28;20026;-32
2023/03/19 03:56:55;;;;;;;0.10;0.10;;;;;;;15.86;47.83;96464.19;10388117;28;20401;-32
2023/03/19 04:01:56;;;;;;;0.30;0.30;;;;;;;15.84;47.88;96460.78;10398965;28;20120;-32
2023/03/19 04:06:56;;;;;;;0.50;0.33;;;;;;;15.94;49.77;96473.47;10396887;28;20299;-32
2023/03/19 04:12:05;;;;;;;0.40;0.30;;;;;;;16.09;52.82;96478.63;10395659;28;20800;-32
2023/03/19 04:17:06;;;;;;;0.20;0.20;;;;;;;16.14;52.38;96483.69;10394455;28;20114;-33
2023/03/19 04:22:07;;;;;;;0.32;0.30;;;;;;;16.08;50.95;96486.16;10387601;28;20037;-33
2023/03/19 04:27:08;;;;;;;0.32;0.28;;;;;;;15.98;48.58;96490.34;10384159;28;20416;-33
2023/03/19 04:32:09;;;;;;;0.20;0.20;;;;;;;15.96;48.46;96491.16;10386278;28;20067;-33
2023/03/19 04:37:10;;;;;;;0.75;0.38;;;;;;;15.93;48.62;96501.25;10385926;28;20047;-33
2023/03/19 04:42:18;;;;;;;0.20;0.10;;;;;;;15.91;48.67;96495.31;10377886;28;20399;-33
2023/03/19 04:47:40;;;;;;;0.20;0.20;;;;;;;15.89;48.16;96497.00;10385008;28;20041;-32
2023/03/19 04:52:41;;;;;;;0.55;0.30;;;;;;;15.87;48.03;96494.47;10387070;28;20025;-33
2023/03/19 04:57:42;;;;;;;0.30;0.30;;;;;;;15.88;47.95;96498.66;10385066;28;20033;-33
2023/03/19 05:02:43;;;;;;;0.40;0.30;;;;;;;15.84;48.33;96491.94;10383076;28;20111;-33
2023/03/19 05:07:43;;;;;;;0.50;0.10;;;;;;;15.84;48.16;96494.44;10383968;28;20450;-34
2023/03/19 05:12:45;;;;;;;0.20;0.20;;;;;;;15.85;47.94;96501.19;10382644;28;20030;-32
2023/03/19 05:17:45;;;;;;;0.47;0.30;;;;;;;15.80;47.80;96485.19;10389472;28;20032;-33
2023/03/19 05:22:53;;;;;;;0.20;0.20;;;;;;;15.85;47.93;96500.34;10398027;28;20572;-32
2023/03/19 05:27:57;;;;;;;0.77;0.20;;;;;;;15.84;47.89;96502.03;10392055;28;20041;-34
2023/03/19 05:33:00;;;;;;;0.30;0.30;;;;;;;15.97;49.54;96502.94;10393332;28;20060;-33
2023/03/19 05:38:08;;;;;;;0.52;0.40;;;;;;;16.06;52.66;96500.47;10388207;28;20033;-33
2023/03/19 05:43:10;;;;;;;0.22;0.20;;;;;;;16.09;50.91;96503.88;10394646;28;20171;-34
2023/03/19 05:48:11;;;;;;;0.15;0.15;;;;;;;16.02;50.88;96506.34;10392755;28;20037;-34
2023/03/19 05:53:15;;;;;;;0.50;0.30;;;;;;;15.95;48.66;96509.66;10387452;28;20502;-33
2023/03/19 05:58:25;;;;;;;0.50;0.20;;;;;;;15.92;48.32;96505.44;10383286;28;20058;-34
2023/03/19 06:03:26;;;;;;;0.20;0.20;;;;;;;15.89;48.69;96510.47;10393532;28;20122;-34
2023/03/19 06:08:28;;;;;;;0.45;0.32;;;;;;;15.89;49.02;96510.47;10396055;28;20494;-33
2023/03/19 06:13:33;;;;;;;0.40;0.30;;;;;;;15.88;48.43;96510.47;10384875;28;20409;-35
2023/03/19 06:18:39;;;;;;;0.22;0.20;;;;;;;15.85;48.57;96506.22;10399789;28;20153;-32
2023/03/19 06:23:43;;;;;;;0.30;0.28;;;;;;;15.85;48.36;96518.03;10389239;28;20029;-33
2023/03/19 06:28:46;;;;;;;0.30;0.30;;;;;;;15.83;48.25;96525.56;10384385;28;20037;-32
2023/03/19 06:33:49;;;;;;;0.22;0.22;;;;;;;15.84;48.06;96531.44;10379480;28;20037;-32
2023/03/19 06:38:49;;;;;;;1.20;0.30;;;;;;;15.81;47.91;96522.19;10380729;28;20526;-34
2023/03/19 06:43:50;;;;;;;0.20;0.20;;;;;;;15.79;47.86;96517.97;10389881;28;20240;-36
2023/03/19 06:48:50;;;;;;;0.40;0.38;;;;;;;15.82;47.68;96528.94;10392677;28;20045;-33
2023/03/19 06:53:51;;;;;;;0.40;0.38;;;;;;;15.81;47.67;96531.44;10392572;28;20033;-33
2023/03/19 06:58:51;;;;;;;0.10;0.10;;;;;;;15.97;50.30;96539.16;10391406;28;20098;-32
2023/03/19 07:03:51;;;;;;;0.45;0.30;;;;;;;16.04;52.66;96547.59;10398134;28;20110;-32
2023/03/19 07:08:52;;;;;;;0.30;0.30;;;;;;;16.07;50.92;96548.47;10397217;28;20120;-35
2023/03/19 07:13:52;;;;;;;0.20;0.20;;;;;;;15.98;49.60;96550.94;10391102;28;20295;-35
2023/03/19 07:18:52;;;;;;;0.27;0.20;;;;;;;15.93;48.47;96550.03;10391642;28;20394;-34
2023/03/19 07:23:53;;;;;;;0.50;0.30;;;;;;;15.89;48.26;96555.91;10395591;28;20405;-34
2023/03/19 07:28:53;;;;;;;0.20;0.20;;;;;;;15.82;48.48;96556.69;10391740;28;20041;-33
2023/03/19 07:33:53;;;;;;;0.00;0.00;;;;;;;15.84;48.21;96567.66;10390656;28;20037;-33
2023/03/19 07:38:54;;;;;;;0.20;0.20;;;;;;;15.83;48.27;96565.97;10393235;28;20120;-34
2023/03/19 07:43:54;;;;;;;0.10;0.10;;;;;;;15.82;48.04;96559.22;10394529;28;20664;-33
2023/03/19 07:48:55;;;;;;;0.13;0.10;;;;;;;15.82;48.23;96568.47;10391387;28;20293;-33
2023/03/19 07:53:55;;;;;;;0.40;0.30;;;;;;;15.81;47.87;96566.78;10390968;28;20473;-33
2023/03/19 07:58:55;;;;;;;0.30;0.20;;;;;;;15.80;47.87;96565.94;10395676;28;20045;-32
2023/03/19 08:03:56;;;;;;;0.37;0.30;;;;;;;15.80;48.09;96568.47;10394455;28;20053;-33
2023/03/19 08:08:56;;;;;;;0.23;0.23;;;;;;;15.81;47.70;96572.69;10385104;28;20049;-36
2023/03/19 08:13:56;;;;;;;0.37;0.30;;;;;;;15.80;48.11;96568.47;10389125;28;20525;-33
2023/03/19 08:18:57;;;;;;;0.10;0.10;;;;;;;15.79;47.67;96564.22;10393948;28;20052;-33
2023/03/19 08:23:57;;;;;;;0.40;0.20;;;;;;;15.96;50.07;96564.38;10390979;28;20268;-33
2023/03/19 08:28:58;;;;;;;0.20;0.20;;;;;;;16.03;52.81;96553.50;10393214;28;20029;-33
2023/03/19 08:34:05;;;;;;;0.50;0.40;;;;;;;16.06;50.69;96556.88;10391508;28;20049;-32
2023/03/19 08:39:05;;;;;;;0.43;0.22;;;;;;;15.95;49.55;96558.47;10390063;28;20153;-32
2023/03/19 08:44:05;;;;;;;0.30;0.30;;;;;;;15.90;48.64;96562.66;10384597;28;20165;-33
2023/03/19 08:49:06;;;;;;;0.30;0.20;;;;;;;15.86;48.50;96555.88;10389299;28;20045;-33
2023/03/19 08:54:06;;;;;;;0.17;0.17;;;;;;;15.82;48.27;96559.22;10385041;28;20103;-34
2023/03/19 08:59:06;;;;;;;0.30;0.20;;;;;;;15.82;48.58;96568.47;10388487;28;20029;-33
2023/03/19 09:04:07;;;;;;;0.23;0.20;;;;;;;15.84;48.47;96572.69;10388159;28;20029;-33
2023/03/19 09:09:07;;;;;;;0.40;0.20;;;;;;;15.83;48.46;96576.06;10389191;28;20033;-34
2023/03/19 09:14:08;;;;;;;0.30;0.20;;;;;;;15.90;47.84;96584.50;10390071;28;20033;-32
2023/03/19 09:19:08;;;;;;;0.28;0.28;;;;;;;15.93;47.73;96585.38;10385809;28;20405;-33
2023/03/19 09:24:11;;;;;;;0.47;0.40;;;;;;;15.88;47.85;96574.41;10378597;28;20485;-33
2023/03/19 09:29:13;;;;;;;0.20;0.17;;;;;;;15.95;47.90;96588.75;10389225;28;20068;-32
2023/03/19 09:34:13;;;;;;;0.20;0.20;;;;;;;15.94;47.44;96589.59;10389432;28;20026;-33
2023/03/19 09:39:13;;;;;;;0.20;0.20;;;;;;;15.91;47.82;96576.97;10382290;28;20041;-34
2023/03/19 09:44:29;;;;;;;0.40;0.40;;;;;;;15.94;48.08;96578.66;10380572;28;20064;-33
2023/03/19 09:49:36;;;;;;;0.20;0.20;;;;;;;16.07;52.12;96580.44;10385441;28;20026;-33
2023/03/19 09:54:47;;;;;;;0.25;0.20;;;;;;;16.10;52.84;96576.25;10392610;28;20033;-33
2023/03/19 09:59:48;;;;;;;0.40;0.30;;;;;;;16.11;50.16;96575.41;10399340;28;20044;-33
2023/03/19 10:05:10;;;;;;;0.30;0.30;;;;;;;16.07;48.36;96581.28;10399184;28;20037;-33
2023/03/19 10:10:29;;;;;;;0.30;0.20;;;;;;;16.04;48.37;96580.44;10396614;28;20033;-32
2023/03/19 10:15:32;;;;;;;0.40;0.30;;;;;;;16.00;48.12;96569.47;10397850;28;20056;-34
2023/03/19 10:21:01;;;;;;;0.38;0.30;;;;;;;16.00;48.13;96571.13;10390948;28;20477;-33
2023/03/19 10:26:07;;;;;;;0.82;0.22;;;;;;;15.98;48.22;96575.31;10384089;28;20482;-32
2023/03/19 10:31:25;;;;;;;0.30;0.30;;;;;;;16.00;48.13;96588.78;10398687;28;20125;-34
2023/03/19 10:36:32;;;;;;;0.63;0.43;;;;;;;16.01;48.03;96580.38;10382771;28;20026;-34
2023/03/19 10:41:45;;;;;;;;;;;;;;;16.03;47.95;96583.78;10404145;28;20021;-33
2023/03/19 10:46:46;;;;;;;0.40;0.40;;;;;;;16.01;47.96;96596.38;10395745;28;19913;-33
2023/03/19 10:51:47;;;;;;;0.15;0.15;;;;;;;16.03;48.21;96594.72;10389189;28;20038;-32
2023/03/19 10:56:48;;;;;;;0.10;0.10;;;;;;;16.02;47.67;96600.59;10387514;28;20036;-33
2023/03/19 11:01:55;;;;;;;0.20;0.20;;;;;;;16.02;48.18;96598.06;10390483;28;20493;-33
2023/03/19 11:07:08;;;;;;;0.20;0.20;;;;;;;16.02;47.95;96597.25;10387033;28;20036;-35
2023/03/19 11:12:25;;;;;;;0.65;0.20;;;;;;;16.08;51.41;96593.09;10377529;28;20041;-33
2023/03/19 11:17:38;;;;;;;0.20;0.20;;;;;;;16.13;52.42;96591.41;10378442;28;20025;-33
2023/03/19 11:22:38;;;;;;;0.70;0.35;;;;;;;16.16;51.02;96596.50;10393827;28;20517;-37
2023/03/19 11:27:39;;;;;;;0.70;0.30;;;;;;;16.12;48.64;96587.19;10390801;28;20041;-33
2023/03/19 11:32:45;;;;;;;0.38;0.32;;;;;;;16.08;48.15;96584.66;10388990;28;20036;-33
2023/03/19 11:38:00;;;;;;;0.17;0.17;;;;;;;16.07;48.46;96576.25;10376594;28;20536;-31
2023/03/19 11:43:20;;;;;;;0.20;0.20;;;;;;;16.08;48.48;96574.53;10387311;28;20034;-32
2023/03/19 11:48:41;;;;;;;0.30;0.20;;;;;;;16.07;48.30;96567.81;10395525;28;20116;-33
2023/03/19 11:54:15;;;;;;;0.10;0.10;;;;;;;16.06;47.99;96569.50;10386641;28;20473;-34
2023/03/19 11:59:34;;;;;;;0.17;0.10;;;;;;;16.06;48.11;96566.97;10388633;28;20029;-33
2023/03/19 12:04:57;;;;;;;0.60;0.30;;;;;;;16.05;48.32;96562.78;10389180;28;20038;-33
2023/03/19 12:10:21;;;;;;;0.20;0.20;;;;;;;16.05;47.90;96554.34;10392497;28;20037;-32
2023/03/19 12:15:34;;;;;;;0.50;0.20;;;;;;;16.05;47.96;96557.72;10388997;28;20512;-33
2023/03/19 12:20:53;;;;;;;0.40;0.22;;;;;;;16.03;48.23;96559.38;10385963;28;20492;-33
2023/03/19 12:26:03;;;;;;;0.30;0.30;;;;;;;16.02;48.10;96555.16;10384353;28;20030;-32
2023/03/19 12:31:07;;;;;;;0.10;0.10;;;;;;;16.02;48.49;96561.91;10383178;28;20037;-35
2023/03/19 12:36:13;;;;;;;0.30;0.30;;;;;;;16.13;50.67;96556.06;10383075;28;20029;-32
2023/03/19 12:41:22;;;;;;;0.30;0.20;;;;;;;16.17;52.33;96557.78;10385199;28;20057;-33
2023/03/19 12:46:26;;;;;;;0.30;0.20;;;;;;;16.21;51.22;96561.19;10394554;28;20033;-33
2023/03/19 12:51:33;;;;;;;0.45;0.20;;;;;;;16.11;48.60;96554.38;10386297;28;20063;-33
2023/03/19 12:56:53;;;;;;;;;;;;;;;16.06;48.75;96559.41;10375873;28;20030;-34
2023/03/19 13:02:02;;;;;;;0.10;0.10;;;;;;;15.99;48.65;96557.66;10397147;28;19913;-32
2023/03/19 13:07:20;;;;;;;0.20;0.20;;;;;;;16.01;48.32;96557.66;10391178;28;20025;-33
2023/03/19 13:12:27;;;;;;;0.25;0.25;;;;;;;16.00;48.29;96561.03;10392052;28;20030;-33
2023/03/19 13:17:51;;;;;;;0.30;0.20;;;;;;;15.98;48.51;96560.19;10391263;28;20056;-34
2023/03/19 13:23:00;;;;;;;0.20;0.17;;;;;;;15.98;48.61;96555.97;10381377;28;20053;-32
2023/03/19 13:28:00;;;;;;;0.43;0.40;;;;;;;15.96;48.07;96550.06;10399084;28;20331;-33
2023/03/19 13:33:03;;;;;;;0.23;0.20;;;;;;;15.97;47.98;96549.25;10392768;28;20056;-33
2023/03/19 13:38:12;;;;;;;0.10;0.10;;;;;;;15.95;48.20;96545.84;10397185;28;20091;-33
2023/03/19 13:43:28;;;;;;;0.43;0.20;;;;;;;15.96;48.03;96546.69;10401030;28;20493;-32
2023/03/19 13:48:29;;;;;;;0.25;0.22;;;;;;;15.95;48.31;96555.13;10389374;28;20029;-32
2023/03/19 13:53:34;;;;;;;0.17;0.17;;;;;;;15.95;48.13;96545.84;10391035;28;20032;-32
2023/03/19 13:58:48;;;;;;;0.28;0.28;;;;;;;16.07;50.80;96550.13;10393530;28;20469;-33
2023/03/19 14:04:03;;;;;;;0.20;0.20;;;;;;;16.15;52.41;96546.84;10400592;28;20108;-33
2023/03/19 14:09:06;;;;;;;0.20;0.20;;;;;;;16.18;51.43;96541.78;10396418;28;20056;-33
2023/03/19 14:14:13;;;;;;;0.20;0.20;;;;;;;16.11;50.14;96537.53;10394013;28;20065;-33
2023/03/19 14:19:18;;;;;;;0.30;0.20;;;;;;;16.04;48.97;96534.97;10397007;28;20095;-33
2023/03/19 14:24:28;;;;;;;0.20;0.20;;;;;;;15.97;48.34;96536.63;10386156;28;20642;-32
2023/03/19 14:29:33;;;;;;;0.63;0.30;;;;;;;15.97;48.69;96544.19;10384894;28;20080;-32
2023/03/19 14:34:41;;;;;;;0.10;0.10;;;;;;;15.96;48.55;96537.44;10399432;28;20420;-32
2023/03/19 14:39:45;;;;;;;0.45;0.30;;;;;;;15.94;48.24;96539.09;10388912;28;20521;-33
2023/03/19 14:45:03;;;;;;;0.22;0.22;;;;;;;15.93;48.39;96534.91;10392205;28;20021;-33
2023/03/19 14:50:30;;;;;;;0.60;0.32;;;;;;;15.92;48.35;96535.72;10388122;28;20155;-33
2023/03/19 14:55:35;;;;;;;0.20;0.20;;;;;;;15.93;48.64;96545.00;10378881;28;20057;-34
2023/03/19 15:00:40;;;;;;;0.38;0.30;;;;;;;15.93;48.45;96566.88;10395820;28;20037;-32
2023/03/19 15:05:41;;;;;;;0.10;0.10;;;;;;;15.92;48.56;96571.06;10398081;28;20053;-32
2023/03/19 15:11:05;;;;;;;0.20;0.20;;;;;;;15.92;48.14;96575.25;10390496;28;20044;-33
2023/03/19 15:16:40;;;;;;;0.40;0.35;;;;;;;15.89;48.41;96586.22;10389154;28;20494;-37
2023/03/19 15:21:40;;;;;;;0.20;0.10;;;;;;;16.01;50.42;96573.66;10389290;28;20038;-33
2023/03/19 15:26:40;;;;;;;1.03;0.40;;;;;;;16.11;52.76;96583.00;10390565;28;20133;-37
2023/03/19 15:31:50;;;;;;;9.03;1.00;;;;;;;15.92;52.75;96590.41;10372154;28;20588;-33
2023/03/19 15:36:55;;;;;;;9.43;1.25;;;;;;;15.76;52.35;96584.41;10373448;28;20765;-31
2023/03/19 15:41:56;;;;;;;7.03;0.77;;;;;;;15.68;54.20;96580.97;10377242;28;20041;-33
2023/03/19 15:46:57;;;;;;;0.50;0.47;;;;;;;15.57;53.72;96582.56;10369435;28;20438;-33
2023/03/19 15:52:03;;;;;;;2.92;0.63;;;;;;;15.53;53.71;96585.06;10382667;28;20152;-33
2023/03/19 15:57:05;;;;;;;2.22;0.73;;;;;;;15.76;51.44;96589.47;10375737;28;20444;-32
2023/03/19 16:02:38;;;;;;;6.10;0.88;;;;;;;15.90;50.59;96598.00;10375379;28;20026;-33
2023/03/19 16:07:42;;;;;;;11.93;1.35;;;;;;;16.00;51.44;96588.78;10373608;28;20048;-33
2023/03/19 16:12:48;;;;;;;37.75;4.43;;;;;;;16.02;51.49;96598.06;10379684;28;20045;-34
2023/03/19 16:17:50;;;;;;;24.35;2.78;;;;;;;16.10;50.92;96588.88;10378340;28;20421;-33
2023/03/19 16:22:57;;;;;;;24.23;2.60;;;;;;;16.14;50.24;96595.66;10370058;28;20026;-33
2023/03/19 16:27:57;;;;;;;19.48;2.55;;;;;;;16.18;49.91;96589.78;10381133;28;20056;-33
2023/03/19 16:33:00;;;;;;;19.73;2.83;;;;;;;16.22;51.25;96590.66;10381055;28;20485;-33
2023/03/19 16:38:16;;;;;;;10.57;1.85;;;;;;;16.24;50.15;96592.34;10376085;28;20035;-33
2023/03/19 16:43:22;;;;;;;14.27;1.77;;;;;;;16.25;50.89;96591.50;10385061;28;20041;-33
2023/03/19 16:48:22;;;;;;;14.65;1.63;;;;;;;16.31;54.45;96601.66;10390092;28;20025;-34
2023/03/19 16:53:28;;;;;;;10.73;1.77;;;;;;;16.44;54.53;96605.97;10385695;28;20036;-33
2023/03/19 16:58:35;;;;;;;13.33;1.87;;;;;;;16.44;50.52;96608.50;10386285;28;20177;-33
2023/03/19 17:03:35;;;;;;;;;;;;;;;16.44;50.35;96618.63;10388243;28;20060;-33
2023/03/19 17:08:35;;;;;;;14.70;1.38;;;;;;;16.42;50.67;96620.28;10381759;28;19960;-33
2023/03/19 17:13:37;;;;;;;6.13;2.53;;;;;;;16.40;50.86;96616.91;10384565;28;20056;-34
2023/03/19 17:18:40;;;;;;;12.15;1.20;;;;;;;16.43;50.60;96621.13;10383479;28;20061;-33
2023/03/19 17:23:41;;;;;;;10.35;1.73;;;;;;;16.42;50.41;96622.81;10394910;28;20528;-33
2023/03/19 17:28:42;;;;;;;7.85;1.95;;;;;;;16.41;50.76;96628.72;10390052;28;20033;-33
2023/03/19 17:33:42;;;;;;;8.90;3.42;;;;;;;16.41;50.46;96631.25;10383217;28;20136;-33
2023/03/19 17:38:45;;;;;;;6.43;2.10;;;;;;;16.37;51.04;96632.03;10384909;28;20122;-34
2023/03/19 17:43:46;;;;;;;9.48;3.17;;;;;;;16.35;51.33;96633.69;10383193;28;20564;-34
2023/03/19 17:48:48;;;;;;;13.55;4.35;;;;;;;16.36;50.92;96630.31;10378512;28;20065;-33
2023/03/19 17:53:52;;;;;;;6.82;2.53;;;;;;;16.39;52.53;96635.44;10369784;28;20125;-33
2023/03/19 17:58:52;;;;;;;43.28;5.30;;;;;;;16.41;51.97;96643.88;10364797;28;20556;-35
2023/03/19 18:03:55;;;;;;;17.15;3.42;;;;;;;16.40;51.71;96657.34;10386602;28;20091;-32
2023/03/19 18:08:55;;;;;;;7.93;2.08;;;;;;;16.49;54.04;96677.63;10387667;28;20099;-34
2023/03/19 18:13:55;;;;;;;5.90;2.20;;;;;;;16.55;54.15;96674.28;10384491;28;20464;-33
2023/03/19 18:19:01;;;;;;;9.93;2.17;;;;;;;16.59;52.12;96678.50;10400107;28;20512;-34
2023/03/19 18:24:03;;;;;;;5.70;1.67;;;;;;;16.59;51.97;96691.13;10387096;28;20033;-33
2023/03/19 18:29:03;;;;;;;7.47;2.03;;;;;;;16.58;51.50;96694.50;10393734;28;20113;-34
2023/03/19 18:34:09;;;;;;;8.27;3.33;;;;;;;16.58;51.60;96702.94;10400231;28;20124;-33
2023/03/19 18:39:12;;;;;;;12.27;1.63;;;;;;;16.58;51.04;96707.16;10395430;28;20125;-33
2023/03/19 18:44:13;;;;;;;12.52;2.80;;;;;;;16.49;52.98;96755.09;10396563;28;20489;-35
2023/03/19 18:49:20;;;;;;;7.05;1.58;;;;;;;16.56;51.99;96795.59;10383225;28;20107;-36
2023/03/19 18:54:20;;;;;;;;;;;;;;;16.57;51.82;96802.34;10379706;28;20036;-35
2023/03/19 18:59:27;;;;;;;8.32;1.50;;;;;;;16.55;53.52;96819.16;10367020;28;19917;-33
2023/03/19 19:04:27;;;;;;;6.95;1.98;;;;;;;16.54;52.18;96826.75;10373925;28;20030;-33
2023/03/19 19:09:28;;;;;;;6.10;1.90;;;;;;;16.53;51.97;96827.59;10368333;28;20045;-33
2023/03/19 19:14:29;;;;;;;13.17;2.30;;;;;;;16.48;52.00;96822.50;10373066;28;20038;-33
2023/03/19 19:19:29;;;;;;;8.30;2.05;;;;;;;16.44;52.21;96825.81;10377609;28;20103;-33
2023/03/19 19:24:29;;;;;;;5.67;1.43;;;;;;;16.49;54.70;96821.66;10368753;28;20479;-33
2023/03/19 19:29:31;;;;;;;5.40;1.43;;;;;;;16.59;57.32;96818.38;10384903;28;20029;-33
2023/03/19 19:34:31;;;;;;;5.95;1.42;;;;;;;16.58;57.37;96814.16;10370135;28;20684;-35
2023/03/19 19:39:32;;;;;;;6.93;1.60;;;;;;;16.56;51.95;96810.78;10372675;28;20029;-34
2023/03/19 19:44:32;;;;;;;5.00;1.17;;;;;;;16.52;51.58;96809.03;10376874;28;20036;-34
2023/03/19 19:49:32;;;;;;;4.13;1.27;;;;;;;16.50;51.23;96792.16;10363798;28;20780;-33
2023/03/19 19:54:33;;;;;;;3.73;1.30;;;;;;;16.47;51.03;96787.94;10364983;28;20072;-34
2023/03/19 19:59:33;;;;;;;7.43;1.37;;;;;;;16.46;50.96;96786.22;10372170;28;20060;-33
2023/03/19 20:04:34;;;;;;;4.53;1.13;;;;;;;16.45;51.05;96773.59;10366177;28;20510;-33
2023/03/19 20:09:34;;;;;;;2.23;1.07;;;;;;;16.44;50.87;96777.78;10362496;28;20738;-34
2023/03/19 20:14:43;;;;;;;4.35;1.52;;;;;;;16.45;50.74;96781.19;10366847;28;20288;-33
2023/03/19 20:19:44;;;;;;;4.57;1.15;;;;;;;16.47;50.58;96785.44;10374330;28;20038;-34
2023/03/19 20:24:44;;;;;;;2.40;1.00;;;;;;;16.47;50.45;96784.56;10379320;28;20409;-34
2023/03/19 20:29:45;;;;;;;4.03;0.90;;;;;;;16.44;50.28;96790.44;10376889;28;20406;-33
2023/03/19 20:34:45;;;;;;;1.23;0.73;;;;;;;16.45;50.28;96791.28;10366416;28;20516;-36
2023/03/19 20:39:45;;;;;;;1.27;0.60;;;;;;;16.45;50.45;96804.75;10374706;28;20758;-33
2023/03/19 20:44:47;;;;;;;1.60;0.67;;;;;;;16.48;50.79;96801.41;10373426;28;20554;-33
2023/03/19 20:49:47;;;;;;;4.72;1.00;;;;;;;16.56;58.39;96800.66;10371291;28;20051;-34
2023/03/19 20:54:48;;;;;;;4.75;1.00;;;;;;;16.57;55.93;96797.31;10379386;28;20615;-33
2023/03/19 20:59:48;;;;;;;2.93;0.73;;;;;;;16.57;51.59;96802.34;10367329;28;20034;-35
2023/03/19 21:04:49;;;;;;;2.93;1.07;;;;;;;16.55;50.81;96804.00;10373587;28;20041;-33
2023/03/19 21:09:49;;;;;;;2.97;0.82;;;;;;;16.54;50.57;96817.47;10378376;28;20042;-33
2023/03/19 21:14:49;;;;;;;1.43;0.80;;;;;;;16.54;50.87;96821.69;10366231;28;20088;-35
2023/03/19 21:19:50;;;;;;;1.35;0.68;;;;;;;16.53;50.16;96814.94;10378215;28;20038;-33
2023/03/19 21:24:55;;;;;;;2.40;0.80;;;;;;;16.54;50.25;96821.69;10381593;28;20415;-34
2023/03/19 21:29:55;;;;;;;2.38;0.80;;;;;;;16.56;50.41;96833.53;10366613;28;20042;-33
2023/03/19 21:34:56;;;;;;;2.08;0.77;;;;;;;16.55;50.38;96846.97;10370790;28;20049;-36
2023/03/19 21:39:56;;;;;;;4.20;0.88;;;;;;;16.53;51.32;96851.16;10380469;28;20509;-33
2023/03/19 21:44:58;;;;;;;1.90;0.50;;;;;;;16.54;50.42;96857.91;10385032;28;20531;-34
2023/03/19 21:49:59;;;;;;;1.38;0.68;;;;;;;16.53;50.56;96863.78;10390218;28;20117;-36
2023/03/19 21:54:59;;;;;;;1.77;0.50;;;;;;;16.47;50.29;96863.75;10388415;28;20121;-33
2023/03/19 21:59:59;;;;;;;1.70;0.70;;;;;;;16.46;50.09;96863.75;10389018;28;20037;-33
2023/03/19 22:05:00;;;;;;;1.60;0.40;;;;;;;16.45;50.19;96864.56;10395265;28;20553;-34
2023/03/19 22:10:01;;;;;;;6.93;1.40;;;;;;;16.58;58.63;96869.75;10390787;28;20406;-33
2023/03/19 22:15:04;;;;;;;4.55;0.93;;;;;;;16.63;60.09;96878.22;10397208;28;20041;-34
2023/03/19 22:20:05;;;;;;;2.20;0.57;;;;;;;16.58;54.64;96877.34;10390306;28;20041;-33
2023/03/19 22:25:05;;;;;;;0.98;0.80;;;;;;;16.48;51.23;96870.50;10391025;28;20504;-31
2023/03/19 22:30:19;;;;;;;2.03;1.00;;;;;;;16.51;50.62;96889.88;10393537;28;20037;-34
2023/03/19 22:35:19;;;;;;;2.33;0.57;;;;;;;16.48;50.62;96898.31;10399308;28;20037;-34
2023/03/19 22:40:20;;;;;;;1.75;0.60;;;;;;;16.44;50.35;96904.13;10396846;28;20379;-33
2023/03/19 22:45:28;;;;;;;1.15;0.50;;;;;;;16.44;50.36;96910.88;10393943;28;20033;-33
2023/03/19 22:50:30;;;;;;;0.80;0.50;;;;;;;16.41;50.58;96909.16;10396137;28;20036;-34
2023/03/19 22:55:30;;;;;;;3.92;0.93;;;;;;;16.43;50.48;96904.13;10384952;28;20044;-33
2023/03/19 23:00:32;;;;;;;1.10;0.63;;;;;;;16.44;50.10;96903.31;10394475;28;20030;-33
2023/03/19 23:05:35;;;;;;;0.73;0.43;;;;;;;16.43;50.19;96897.41;10390430;28;20030;-33
2023/03/19 23:10:35;;;;;;;1.63;0.70;;;;;;;16.46;50.62;96912.56;10394885;28;20030;-34
2023/03/19 23:15:36;;;;;;;1.63;0.90;;;;;;;16.44;49.99;96906.66;10400350;28;20040;-34
2023/03/19 23:20:37;;;;;;;0.30;0.30;;;;;;;16.44;50.17;96905.84;10388485;28;20492;-36
2023/03/19 23:25:37;;;;;;;1.27;0.50;;;;;;;16.43;50.04;96902.44;10385052;28;20497;-34
2023/03/19 23:30:40;;;;;;;3.10;0.73;;;;;;;16.58;58.17;96911.88;10396650;28;20053;-34
2023/03/19 23:35:40;;;;;;;2.08;1.38;;;;;;;16.61;58.63;96905.16;10391457;28;20103;-34
2023/03/19 23:40:45;;;;;;;1.17;0.63;;;;;;;16.55;53.17;96905.09;10394628;28;20049;-34